Time;durP1;ratioP1;P1;durP2;ratioP2;P2;SDS_P1;SDS_P2;PMS_P1;PMS_P2;Temp;Humidity;BMP_temperature;BMP_pressure;BME280_temperature;BME280_humidity;BME280_pressure;Samples;Min_cycle;Max_cycle;Signal;HPM_P1;HPM_P2
2023/05/19 00:00:00;;;;;;;3.10;1.60;;;22.20;59.00;;;;;;221758;1272;26624;-48
2023/05/19 00:05:39;;;;;;;3.50;2.30;;;22.20;59.00;;;;;;221817;1256;24158;-46
2023/05/19 00:10:43;;;;;;;6.00;2.20;;;22.30;60.00;;;;;;221701;1256;22523;-40
2023/05/19 00:15:48;;;;;;;5.00;1.80;;;22.30;62.50;;;;;;221748;1259;22526;-43
2023/05/19 00:20:52;;;;;;;3.10;1.50;;;22.30;62.30;;;;;;221825;1256;24131;-41
2023/05/19 00:25:56;;;;;;;2.40;1.60;;;22.30;62.20;;;;;;221957;1256;22511;-41
2023/05/19 00:31:02;;;;;;;3.00;1.30;;;22.20;62.40;;;;;;222125;1259;25224;-40
2023/05/19 00:36:07;;;;;;;2.90;1.70;;;22.30;62.50;;;;;;221896;1266;25603;-42
2023/05/19 00:41:11;;;;;;;5.60;1.50;;;22.20;62.30;;;;;;221964;1256;22529;-42
2023/05/19 00:46:15;;;;;;;1.70;1.40;;;22.20;62.40;;;;;;221818;1256;22564;-40
2023/05/19 00:51:19;;;;;;;1.70;1.40;;;22.20;62.20;;;;;;221840;1259;22514;-46
2023/05/19 00:56:25;;;;;;;2.10;1.60;;;22.10;61.70;;;;;;222051;1256;22528;-39
2023/05/19 01:01:31;;;;;;;1.90;1.30;;;22.20;62.20;;;;;;221866;1265;22528;-45
2023/05/19 01:06:38;;;;;;;2.60;1.90;;;22.10;61.60;;;;;;221802;1259;24419;-39
2023/05/19 01:11:42;;;;;;;2.60;1.60;;;22.10;62.00;;;;;;221846;1256;22511;-42
2023/05/19 01:16:53;;;;;;;4.10;1.70;;;22.10;61.60;;;;;;221754;1264;22518;-40
2023/05/19 01:22:35;;;;;;;2.30;1.80;;;22.10;62.30;;;;;;221832;1259;23907;-41
2023/05/19 01:28:03;;;;;;;2.90;1.70;;;22.10;61.70;;;;;;221788;1250;24369;-42
2023/05/19 01:33:12;;;;;;;2.50;1.60;;;22.10;61.70;;;;;;221895;1256;22555;-43
2023/05/19 01:38:19;;;;;;;2.50;1.40;;;22.10;61.40;;;;;;221744;1256;25982;-39
2023/05/19 01:43:25;;;;;;;2.50;1.70;;;22.10;61.50;;;;;;222080;1264;24993;-41
2023/05/19 01:48:30;;;;;;;1.70;1.60;;;22.10;61.60;;;;;;221783;1258;25357;-40
2023/05/19 01:53:34;;;;;;;2.60;1.80;;;22.10;61.30;;;;;;221807;1262;22599;-40
2023/05/19 01:58:44;;;;;;;1.40;1.30;;;22.10;61.70;;;;;;221760;1263;22521;-41
2023/05/19 02:04:15;;;;;;;2.70;2.10;;;22.10;61.50;;;;;;221475;1266;25380;-39
2023/05/19 02:09:28;;;;;;;2.20;1.50;;;22.10;61.00;;;;;;221692;1264;24477;-40
2023/05/19 02:14:39;;;;;;;1.80;1.50;;;22.10;61.00;;;;;;221820;1268;226064;-40
2023/05/19 02:19:43;;;;;;;3.30;2.10;;;22.10;61.40;;;;;;221684;1265;25191;-40
2023/05/19 02:24:50;;;;;;;1.80;1.20;;;22.10;60.80;;;;;;221813;1269;23769;-41
2023/05/19 02:29:56;;;;;;;1.40;1.30;;;22.00;60.90;;;;;;221801;1270;22512;-42
2023/05/19 02:35:00;;;;;;;1.60;1.50;;;22.00;61.00;;;;;;221830;1262;24219;-42
2023/05/19 02:40:05;;;;;;;1.70;1.60;;;22.00;61.10;;;;;;221775;1259;22517;-41
2023/05/19 02:45:10;;;;;;;2.20;1.60;;;22.00;61.50;;;;;;221879;1264;25186;-39
2023/05/19 02:50:16;;;;;;;3.60;1.30;;;22.00;61.10;;;;;;221800;1256;23886;-41
2023/05/19 02:55:20;;;;;;;2.20;1.50;;;22.00;61.00;;;;;;221776;1261;24257;-41
2023/05/19 03:00:24;;;;;;;1.70;1.40;;;22.00;61.00;;;;;;221721;1268;22517;-40
2023/05/19 03:05:30;;;;;;;2.20;1.50;;;22.00;61.00;;;;;;221965;1260;22564;-41
2023/05/19 03:10:34;;;;;;;2.40;1.40;;;22.00;61.10;;;;;;221846;1262;24062;-38
2023/05/19 03:15:38;;;;;;;1.70;1.40;;;21.90;60.90;;;;;;221667;1259;22533;-41
2023/05/19 03:20:43;;;;;;;2.00;1.60;;;21.90;60.90;;;;;;221786;1257;23831;-40
2023/05/19 03:25:47;;;;;;;1.90;1.50;;;21.90;61.10;;;;;;221020;1262;23163;-41
2023/05/19 03:30:52;;;;;;;1.40;1.30;;;21.90;60.90;;;;;;221059;1271;22683;-41
2023/05/19 03:35:59;;;;;;;1.40;1.10;;;22.00;61.60;;;;;;220830;1270;24418;-41
2023/05/19 03:41:04;;;;;;;1.90;1.10;;;22.30;60.70;;;;;;220971;1256;24191;-41
2023/05/19 03:46:09;;;;;;;1.20;1.10;;;22.60;59.50;;;;;;221781;1257;22515;-41
2023/05/19 03:51:22;;;;;;;3.60;1.30;;;22.90;59.20;;;;;;221820;1266;22838;-43
2023/05/19 03:56:29;;;;;;;1.90;1.60;;;23.10;58.40;;;;;;221626;1266;23470;-41
2023/05/19 04:01:35;;;;;;;1.20;1.10;;;23.20;57.90;;;;;;221810;1256;24355;-40
2023/05/19 04:06:39;;;;;;;3.10;1.40;;;23.30;57.60;;;;;;221846;1268;23144;-40
2023/05/19 04:11:43;;;;;;;1.20;1.10;;;23.30;57.40;;;;;;221743;1259;24246;-41
2023/05/19 04:16:48;;;;;;;1.40;1.10;;;23.40;57.30;;;;;;221606;1262;22782;-40
2023/05/19 04:21:52;;;;;;;2.10;1.80;;;23.40;57.20;;;;;;221831;1263;22515;-41
2023/05/19 04:27:01;;;;;;;1.20;0.90;;;23.60;57.10;;;;;;221735;1265;25083;-40
2023/05/19 04:32:06;;;;;;;1.40;1.30;;;23.60;56.80;;;;;;221935;1263;22869;-43
2023/05/19 04:37:17;;;;;;;1.20;1.00;;;23.60;56.70;;;;;;221800;1268;22529;-41
2023/05/19 04:42:21;;;;;;;1.50;1.30;;;23.60;57.10;;;;;;221850;1260;24368;-41
2023/05/19 04:47:26;;;;;;;1.20;1.10;;;23.50;56.90;;;;;;221796;1268;22521;-40
2023/05/19 04:52:32;;;;;;;0.90;0.90;;;23.50;57.50;;;;;;222038;1262;22660;-45
2023/05/19 04:57:37;;;;;;;1.90;1.50;;;23.40;57.10;;;;;;221611;1264;24073;-42
2023/05/19 05:02:42;;;;;;;1.60;1.50;;;23.40;57.20;;;;;;222089;1259;22766;-41
2023/05/19 05:07:48;;;;;;;1.70;1.30;;;23.40;57.20;;;;;;221734;1264;25434;-40
2023/05/19 05:12:53;;;;;;;1.40;1.30;;;23.30;57.80;;;;;;222110;1267;23690;-40
2023/05/19 05:17:59;;;;;;;1.80;1.60;;;23.20;58.00;;;;;;221544;1249;22532;-41
2023/05/19 05:23:03;;;;;;;1.40;1.30;;;23.10;58.60;;;;;;221777;1266;23020;-44
2023/05/19 05:28:08;;;;;;;2.40;1.50;;;23.20;58.50;;;;;;222024;1259;22510;-40
2023/05/19 05:33:12;;;;;;;1.50;1.10;;;23.10;58.50;;;;;;221944;1267;24581;-46
2023/05/19 05:38:17;;;;;;;1.80;1.10;;;23.20;58.60;;;;;;221804;1260;22515;-42
2023/05/19 05:43:21;;;;;;;1.50;0.90;;;23.10;57.70;;;;;;221965;1271;25309;-40
2023/05/19 05:48:31;;;;;;;1.70;1.50;;;23.00;58.50;;;;;;221921;1265;24215;-53
2023/05/19 05:53:42;;;;;;;2.80;1.70;;;22.90;58.60;;;;;;221959;1257;22546;-47
2023/05/19 05:58:46;;;;;;;5.30;1.40;;;22.80;58.90;;;;;;222021;1262;22648;-49
2023/05/19 06:03:51;;;;;;;4.00;1.40;;;22.80;58.70;;;;;;221810;1269;24068;-47
2023/05/19 06:08:58;;;;;;;3.60;1.90;;;22.80;58.90;;;;;;221834;1260;22511;-46
2023/05/19 06:14:03;;;;;;;1.90;1.40;;;23.00;58.80;;;;;;221865;1266;24219;-47
2023/05/19 06:19:29;;;;;;;10.40;1.90;;;23.00;59.00;;;;;;222024;1256;22783;-45
2023/05/19 06:24:34;;;;;;;7.90;2.10;;;23.00;59.10;;;;;;222056;1264;24388;-46
2023/05/19 06:29:41;;;;;;;9.70;2.10;;;22.90;59.40;;;;;;221540;1257;22641;-46
2023/05/19 06:34:52;;;;;;;7.80;2.00;;;22.90;60.20;;;;;;221432;1252;22514;-44
2023/05/19 06:39:57;;;;;;;3.50;1.70;;;22.90;60.00;;;;;;221747;1249;22518;-51
2023/05/19 06:45:02;;;;;;;4.60;2.40;;;22.90;59.50;;;;;;221597;1266;22511;-45
2023/05/19 06:50:06;;;;;;;6.00;2.30;;;22.90;59.50;;;;;;221279;1265;22525;-46
2023/05/19 06:55:11;;;;;;;6.70;3.10;;;22.80;59.60;;;;;;221302;1254;25215;-46
2023/05/19 07:00:17;;;;;;;3.70;1.20;;;22.80;59.60;;;;;;221355;1266;22632;-52
2023/05/19 07:05:27;;;;;;;6.70;1.60;;;22.70;59.40;;;;;;221576;1267;22649;-46
2023/05/19 07:10:32;;;;;;;3.60;1.60;;;22.70;59.40;;;;;;221364;1256;22525;-47
2023/05/19 07:15:38;;;;;;;3.90;1.50;;;22.70;59.70;;;;;;221299;1271;22526;-44
2023/05/19 07:20:43;;;;;;;3.30;1.50;;;22.70;59.70;;;;;;221538;1260;26594;-45
2023/05/19 07:25:47;;;;;;;4.00;1.60;;;22.60;59.10;;;;;;221280;1269;23884;-45
2023/05/19 07:30:51;;;;;;;3.70;1.50;;;22.60;59.00;;;;;;221373;1269;22517;-46
2023/05/19 07:35:56;;;;;;;2.00;1.20;;;22.60;59.40;;;;;;221447;1272;22595;-46
2023/05/19 07:41:01;;;;;;;1.30;1.00;;;22.60;59.30;;;;;;221368;1259;22501;-46
2023/05/19 07:46:05;;;;;;;3.20;1.30;;;22.60;58.90;;;;;;221778;1263;25310;-45
2023/05/19 07:51:12;;;;;;;2.70;1.20;;;22.60;59.00;;;;;;221588;1255;25833;-46
2023/05/19 07:56:15;;;;;;;2.00;1.20;;;22.60;58.80;;;;;;221370;1262;25335;-47
2023/05/19 08:01:19;;;;;;;1.80;1.30;;;22.50;58.70;;;;;;221501;1266;22515;-47
2023/05/19 08:06:24;;;;;;;6.10;2.00;;;22.50;58.70;;;;;;221369;1272;25306;-45
2023/05/19 08:11:28;;;;;;;2.00;1.40;;;22.50;58.70;;;;;;221537;1267;25500;-46
2023/05/19 08:16:32;;;;;;;2.50;1.80;;;22.50;58.60;;;;;;221439;1266;22539;-44
2023/05/19 08:21:36;;;;;;;1.60;1.30;;;22.40;58.60;;;;;;221461;1266;24232;-46
2023/05/19 08:26:40;;;;;;;4.40;1.70;;;22.40;58.50;;;;;;221523;1266;22508;-49
2023/05/19 08:31:45;;;;;;;2.00;1.80;;;22.50;58.60;;;;;;221850;1265;22570;-46
2023/05/19 08:36:49;;;;;;;2.20;1.40;;;22.50;58.40;;;;;;221602;1266;25392;-47
2023/05/19 08:41:54;;;;;;;2.00;1.80;;;22.50;58.50;;;;;;221471;1268;22513;-47
2023/05/19 08:47:11;;;;;;;3.60;1.40;;;22.40;58.40;;;;;;221488;1262;22507;-45
2023/05/19 08:52:25;;;;;;;2.40;1.50;;;22.40;58.40;;;;;;221580;1259;23908;-49
2023/05/19 08:57:30;;;;;;;2.00;1.40;;;22.50;58.30;;;;;;221464;1271;22533;-44
2023/05/19 09:02:37;;;;;;;2.80;1.30;;;22.40;58.10;;;;;;221497;1257;24301;-45
2023/05/19 09:08:03;;;;;;;2.20;1.70;;;22.40;58.30;;;;;;221414;1262;22526;-45
2023/05/19 09:13:08;;;;;;;1.60;1.50;;;22.40;58.00;;;;;;221734;1262;22516;-44
2023/05/19 09:18:14;;;;;;;2.30;1.70;;;22.50;58.60;;;;;;221466;1270;22662;-46
2023/05/19 09:23:18;;;;;;;2.30;2.00;;;22.50;59.00;;;;;;221239;1259;22609;-47
2023/05/19 09:28:33;;;;;;;3.70;1.60;;;22.50;57.80;;;;;;221407;1271;22512;-47
2023/05/19 09:33:39;;;;;;;2.40;2.10;;;22.60;57.80;;;;;;221303;1266;25322;-48
2023/05/19 09:38:47;;;;;;;3.10;1.80;;;22.60;57.80;;;;;;221748;1256;23425;-45
2023/05/19 09:43:56;;;;;;;1.60;1.40;;;22.60;57.40;;;;;;221718;1271;24055;-45
2023/05/19 09:49:09;;;;;;;1.50;1.30;;;22.60;57.40;;;;;;221250;1271;22511;-46
2023/05/19 09:54:16;;;;;;;2.60;2.20;;;22.60;58.00;;;;;;221218;1256;23909;-45
2023/05/19 09:59:23;;;;;;;2.20;1.70;;;22.70;57.80;;;;;;221279;1261;22752;-49
2023/05/19 10:04:29;;;;;;;3.20;1.90;;;22.60;57.50;;;;;;221451;1271;22522;-48
2023/05/19 10:09:35;;;;;;;1.20;1.10;;;22.60;57.70;;;;;;221517;1248;25480;-46
2023/05/19 10:14:40;;;;;;;2.10;1.40;;;22.60;57.90;;;;;;221563;1256;23886;-45
2023/05/19 10:19:44;;;;;;;3.80;2.40;;;22.70;57.80;;;;;;221309;1259;22521;-45
2023/05/19 10:24:48;;;;;;;4.60;2.40;;;22.70;57.40;;;;;;221259;1260;22556;-60
2023/05/19 10:29:55;;;;;;;2.50;2.00;;;22.70;57.50;;;;;;221612;1263;22516;-49
2023/05/19 10:35:09;;;;;;;2.50;2.10;;;22.70;57.20;;;;;;221408;1260;23156;-49
2023/05/19 10:40:37;;;;;;;1.60;1.50;;;22.80;57.20;;;;;;220714;1263;23010;-46
2023/05/19 10:45:47;;;;;;;1.60;1.40;;;22.80;57.00;;;;;;220065;1271;22523;-47
2023/05/19 10:50:53;;;;;;;1.60;1.50;;;22.70;57.40;;;;;;220382;1269;26499;-44
2023/05/19 10:56:03;;;;;;;2.10;1.60;;;22.60;57.40;;;;;;220911;1270;25271;-46
2023/05/19 11:01:23;;;;;;;1.90;1.70;;;22.70;57.40;;;;;;221583;1259;22669;-45
2023/05/19 11:06:28;;;;;;;2.10;1.60;;;22.70;57.40;;;;;;221613;1266;22566;-45
2023/05/19 11:11:52;;;;;;;6.80;1.90;;;22.70;58.00;;;;;;221568;1270;24547;-46
2023/05/19 11:16:58;;;;;;;4.10;2.30;;;22.70;58.90;;;;;;221365;1256;22607;-44
2023/05/19 11:22:12;;;;;;;3.60;2.00;;;22.70;59.50;;;;;;221405;1265;25217;-46
2023/05/19 11:27:31;;;;;;;4.10;2.30;;;22.70;59.70;;;;;;221666;1258;22774;-47
2023/05/19 11:32:40;;;;;;;9.70;1.80;;;22.60;59.60;;;;;;221855;1264;25369;-48
2023/05/19 11:37:46;;;;;;;2.80;1.80;;;22.70;59.80;;;;;;221255;1269;22519;-48
2023/05/19 11:42:51;;;;;;;2.70;1.90;;;22.70;59.70;;;;;;221489;1271;22587;-48
2023/05/19 11:47:57;;;;;;;2.70;2.10;;;22.70;59.60;;;;;;221534;1270;22682;-47
2023/05/19 11:53:06;;;;;;;3.90;2.20;;;22.70;59.90;;;;;;221537;1265;22521;-44
2023/05/19 11:58:10;;;;;;;3.30;1.90;;;22.70;59.70;;;;;;221437;1271;22521;-45
2023/05/19 12:03:16;;;;;;;2.70;2.30;;;22.70;59.80;;;;;;221454;1266;22511;-46
2023/05/19 12:08:20;;;;;;;2.70;2.00;;;22.70;59.60;;;;;;221844;1266;23299;-44
2023/05/19 12:13:24;;;;;;;2.70;1.90;;;22.60;59.40;;;;;;221738;1269;22545;-46
2023/05/19 12:18:30;;;;;;;2.80;1.60;;;22.60;59.40;;;;;;221550;1264;24672;-46
2023/05/19 12:23:35;;;;;;;2.90;1.90;;;22.60;59.80;;;;;;221779;1250;22754;-47
2023/05/19 12:28:40;;;;;;;2.40;2.00;;;22.50;59.60;;;;;;221620;1258;24196;-48
2023/05/19 12:33:47;;;;;;;2.80;2.00;;;22.50;59.70;;;;;;221450;1271;24219;-47
2023/05/19 12:38:55;;;;;;;4.00;1.80;;;22.50;59.50;;;;;;221873;1263;25591;-46
2023/05/19 12:43:58;;;;;;;2.90;2.10;;;22.60;59.30;;;;;;221450;1264;22533;-48
2023/05/19 12:49:03;;;;;;;3.60;2.20;;;22.50;59.60;;;;;;221335;1249;22549;-53
2023/05/19 12:54:07;;;;;;;2.50;2.00;;;22.50;59.40;;;;;;221414;1258;22508;-45
2023/05/19 12:59:22;;;;;;;6.50;3.00;;;22.60;59.10;;;;;;221381;1258;22524;-48
2023/05/19 13:04:40;;;;;;;2.50;1.70;;;22.70;59.20;;;;;;221227;1265;22521;-51
2023/05/19 13:09:44;;;;;;;3.00;2.00;;;22.70;58.60;;;;;;221514;1264;24358;-46
2023/05/19 13:14:50;;;;;;;3.60;2.40;;;22.60;58.70;;;;;;221344;1257;25567;-46
2023/05/19 13:19:59;;;;;;;5.30;2.20;;;22.60;59.10;;;;;;221445;1264;24203;-46
2023/05/19 13:25:04;;;;;;;3.30;2.20;;;22.60;58.90;;;;;;221509;1264;22511;-46
2023/05/19 13:30:08;;;;;;;3.50;2.40;;;22.60;59.00;;;;;;221381;1257;24339;-47
2023/05/19 13:35:13;;;;;;;2.80;2.30;;;22.50;59.10;;;;;;221383;1257;24215;-52
2023/05/19 13:40:18;;;;;;;2.30;2.10;;;22.40;59.80;;;;;;221600;1260;24304;-49
2023/05/19 13:45:22;;;;;;;2.30;2.00;;;22.50;59.50;;;;;;221349;1264;25180;-53
2023/05/19 13:50:26;;;;;;;4.00;2.60;;;22.50;59.30;;;;;;221490;1254;22540;-51
2023/05/19 13:55:31;;;;;;;3.20;2.20;;;22.60;58.90;;;;;;221430;1264;24101;-51
2023/05/19 14:00:37;;;;;;;4.40;2.80;;;22.40;59.70;;;;;;221916;1267;22653;-52
2023/05/19 14:05:41;;;;;;;6.90;4.00;;;22.40;59.20;;;;;;221580;1256;24132;-52
2023/05/19 14:10:46;;;;;;;3.00;2.60;;;22.40;59.30;;;;;;228146;1264;205830;-50
2023/05/19 14:15:50;;;;;;;3.10;2.80;;;22.50;59.60;;;;;;222250;1264;22644;-52
2023/05/19 14:20:55;;;;;;;2.70;2.50;;;22.50;59.30;;;;;;223405;1257;25191;-52
2023/05/19 14:25:59;;;;;;;5.60;3.50;;;22.40;58.80;;;;;;221924;1264;22770;-53
2023/05/19 14:31:04;;;;;;;3.30;2.80;;;22.30;59.40;;;;;;221578;1258;22518;-50
2023/05/19 14:36:09;;;;;;;2.90;2.70;;;22.30;59.90;;;;;;221574;1267;22517;-50
2023/05/19 14:41:13;;;;;;;3.00;2.70;;;22.30;59.60;;;;;;221415;1267;22563;-51
2023/05/19 14:46:17;;;;;;;3.40;3.10;;;22.30;59.90;;;;;;221334;1262;25349;-52
2023/05/19 14:51:21;;;;;;;4.10;3.30;;;22.40;59.40;;;;;;221787;1264;24205;-52
2023/05/19 14:56:26;;;;;;;3.10;2.80;;;22.30;58.90;;;;;;221589;1264;22507;-50
2023/05/19 15:01:30;;;;;;;5.40;3.00;;;22.30;59.10;;;;;;221546;1247;22562;-49
2023/05/19 15:06:34;;;;;;;6.40;3.10;;;22.30;59.80;;;;;;221602;1270;22753;-50
2023/05/19 15:11:38;;;;;;;4.90;3.40;;;22.40;59.60;;;;;;221729;1263;24077;-51
2023/05/19 15:16:43;;;;;;;5.90;3.80;;;22.30;59.70;;;;;;221699;1249;22538;-51
2023/05/19 15:21:49;;;;;;;15.10;4.70;;;22.40;60.30;;;;;;221596;1256;22522;-41
2023/05/19 15:26:54;;;;;;;6.50;3.90;;;22.30;60.60;;;;;;221278;1260;24319;-39
2023/05/19 15:31:58;;;;;;;6.60;3.60;;;22.40;60.40;;;;;;221698;1257;25007;-43
2023/05/19 15:37:03;;;;;;;6.10;4.70;;;22.40;60.60;;;;;;221685;1256;25453;-41
2023/05/19 15:42:07;;;;;;;8.60;5.00;;;22.40;62.40;;;;;;221553;1267;22772;-42
2023/05/19 15:47:11;;;;;;;11.40;5.30;;;22.40;63.10;;;;;;221420;1263;25087;-40
2023/05/19 15:52:15;;;;;;;9.20;4.10;;;22.50;64.10;;;;;;221804;1267;22500;-42
2023/05/19 15:57:19;;;;;;;15.60;7.40;;;22.60;64.00;;;;;;221610;1257;25520;-41
2023/05/19 16:02:23;;;;;;;12.40;6.90;;;22.60;63.70;;;;;;221582;1256;24062;-42
2023/05/19 16:07:28;;;;;;;9.70;5.20;;;22.50;64.80;;;;;;221400;1267;22520;-40
2023/05/19 16:12:32;;;;;;;7.70;5.40;;;22.60;65.00;;;;;;221700;1256;22598;-41
2023/05/19 16:17:38;;;;;;;8.10;4.50;;;22.60;65.10;;;;;;221779;1263;22525;-40
2023/05/19 16:22:43;;;;;;;6.50;5.10;;;22.70;66.10;;;;;;221870;1257;25218;-42
2023/05/19 16:27:47;;;;;;;7.20;4.80;;;22.70;65.60;;;;;;221559;1266;23013;-45
2023/05/19 16:32:54;;;;;;;7.80;5.80;;;22.70;65.30;;;;;;221463;1256;22543;-44
2023/05/19 16:37:58;;;;;;;9.70;6.50;;;22.70;65.00;;;;;;221281;1257;24347;-42
2023/05/19 16:43:03;;;;;;;6.90;5.20;;;22.70;64.70;;;;;;221500;1263;24197;-41
2023/05/19 16:48:07;;;;;;;10.40;5.20;;;22.60;65.30;;;;;;221694;1256;22524;-42
2023/05/19 16:53:12;;;;;;;6.10;4.70;;;22.60;65.30;;;;;;221670;1263;25480;-43
2023/05/19 16:58:16;;;;;;;8.00;4.80;;;22.60;64.80;;;;;;221795;1263;23815;-42
2023/05/19 17:03:20;;;;;;;9.70;5.20;;;22.60;64.90;;;;;;221743;1256;23097;-40
2023/05/19 17:08:25;;;;;;;5.00;4.50;;;22.70;64.80;;;;;;222200;1257;22637;-42
2023/05/19 17:13:32;;;;;;;16.40;5.10;;;22.70;65.20;;;;;;221765;1250;22513;-42
2023/05/19 17:18:36;;;;;;;8.20;4.90;;;22.70;65.10;;;;;;221793;1257;22765;-49
2023/05/19 17:23:40;;;;;;;9.50;5.30;;;22.50;65.40;;;;;;221080;1253;22518;-47
2023/05/19 17:28:45;;;;;;;7.90;5.50;;;22.50;64.90;;;;;;221953;1263;23719;-46
2023/05/19 17:33:49;;;;;;;8.50;6.10;;;22.50;64.20;;;;;;221798;1256;25051;-44
2023/05/19 17:38:54;;;;;;;12.30;5.80;;;22.40;64.40;;;;;;221793;1256;24193;-46
2023/05/19 17:44:02;;;;;;;11.90;6.60;;;22.60;65.10;;;;;;221514;1256;24199;-53
2023/05/19 17:49:11;;;;;;;17.10;6.10;;;22.60;65.60;;;;;;221797;1256;25225;-46
2023/05/19 17:54:19;;;;;;;10.30;6.60;;;22.70;65.50;;;;;;222334;1257;25456;-51
2023/05/19 17:59:24;;;;;;;17.80;7.10;;;22.70;64.20;;;;;;221860;1259;22515;-45
2023/05/19 18:04:29;;;;;;;10.40;6.10;;;22.80;64.00;;;;;;221673;1263;22623;-46
2023/05/19 18:09:39;;;;;;;13.50;7.40;;;22.70;64.00;;;;;;221749;1259;22695;-49
2023/05/19 18:14:43;;;;;;;12.90;6.80;;;22.80;64.10;;;;;;222143;1257;24207;-49
2023/05/19 18:19:48;;;;;;;18.10;8.00;;;22.70;63.50;;;;;;221781;1256;24202;-47
2023/05/19 18:24:53;;;;;;;18.70;8.00;;;22.70;63.60;;;;;;221798;1257;25271;-47
2023/05/19 18:29:58;;;;;;;16.10;8.30;;;22.60;63.80;;;;;;221443;1256;24187;-47
2023/05/19 18:35:04;;;;;;;17.10;7.70;;;22.60;63.10;;;;;;221720;1257;24375;-47
2023/05/19 18:40:12;;;;;;;18.10;8.20;;;22.40;63.80;;;;;;221745;1256;25347;-51
2023/05/19 18:45:18;;;;;;;13.20;7.30;;;22.40;63.90;;;;;;221768;1256;22637;-50
2023/05/19 18:50:23;;;;;;;13.80;7.20;;;22.40;64.20;;;;;;221740;1258;22994;-46
2023/05/19 18:55:27;;;;;;;15.10;7.60;;;22.40;63.80;;;;;;221908;1266;22530;-51
2023/05/19 19:00:34;;;;;;;14.40;8.40;;;22.30;63.10;;;;;;221826;1256;25511;-52
2023/05/19 19:05:40;;;;;;;12.30;7.50;;;22.30;65.40;;;;;;221784;1261;22581;-52
2023/05/19 19:10:50;;;;;;;13.10;7.90;;;22.40;66.20;;;;;;221822;1259;25443;-53
2023/05/19 19:16:04;;;;;;;11.20;7.40;;;22.30;65.60;;;;;;222039;1259;24289;-52
2023/05/19 19:21:10;;;;;;;14.40;7.60;;;22.30;65.60;;;;;;221809;1253;22523;-50
2023/05/19 19:26:14;;;;;;;15.90;8.80;;;22.30;65.70;;;;;;221769;1256;25655;-54
2023/05/19 19:31:19;;;;;;;13.20;7.50;;;22.30;65.50;;;;;;221911;1259;25389;-52
2023/05/19 19:36:25;;;;;;;14.40;8.30;;;22.30;65.60;;;;;;221813;1259;22533;-54
2023/05/19 19:41:29;;;;;;;15.10;8.00;;;22.30;65.70;;;;;;221886;1266;25220;-51
2023/05/19 19:46:34;;;;;;;12.80;7.50;;;22.30;65.00;;;;;;221823;1259;25466;-51
2023/05/19 19:51:38;;;;;;;12.90;7.60;;;22.30;64.80;;;;;;221566;1249;23471;-51
2023/05/19 19:56:42;;;;;;;12.60;7.50;;;22.40;64.50;;;;;;221753;1256;22522;-45
2023/05/19 20:01:53;;;;;;;12.50;6.60;;;22.50;64.10;;;;;;221713;1258;23939;-53
2023/05/19 20:06:57;;;;;;;14.50;7.20;;;22.60;64.20;;;;;;221823;1261;22673;-55
2023/05/19 20:12:01;;;;;;;12.40;7.50;;;22.60;63.80;;;;;;221569;1259;24361;-54
2023/05/19 20:17:05;;;;;;;13.70;6.80;;;22.60;63.80;;;;;;221692;1261;22524;-56
2023/05/19 20:22:09;;;;;;;16.40;6.70;;;22.60;64.40;;;;;;221742;1252;22538;-54
2023/05/19 20:27:14;;;;;;;13.40;6.60;;;22.60;63.20;;;;;;221800;1259;22647;-50
2023/05/19 20:32:18;;;;;;;11.30;7.20;;;22.60;63.30;;;;;;221692;1261;22537;-51
2023/05/19 20:37:22;;;;;;;13.30;6.90;;;22.70;64.70;;;;;;221584;1265;22650;-51
2023/05/19 20:42:26;;;;;;;14.70;7.70;;;22.60;64.10;;;;;;221693;1253;22514;-54
2023/05/19 20:47:30;;;;;;;13.50;7.60;;;22.60;64.50;;;;;;221798;1258;22523;-52
2023/05/19 20:52:35;;;;;;;15.20;8.10;;;22.70;65.30;;;;;;221780;1256;23007;-53
2023/05/19 20:57:39;;;;;;;15.70;8.70;;;22.70;65.70;;;;;;221685;1256;22606;-56
2023/05/19 21:02:43;;;;;;;14.70;8.10;;;22.80;65.80;;;;;;221726;1250;24213;-53
2023/05/19 21:07:48;;;;;;;13.00;7.90;;;22.80;65.40;;;;;;221690;1267;22515;-54
2023/05/19 21:12:52;;;;;;;11.10;7.90;;;22.80;65.40;;;;;;221703;1250;22511;-53
2023/05/19 21:17:56;;;;;;;10.20;7.30;;;22.80;65.60;;;;;;221842;1256;22745;-53
2023/05/19 21:23:02;;;;;;;12.60;7.80;;;22.80;65.40;;;;;;221729;1257;22527;-52
2023/05/19 21:28:06;;;;;;;11.30;7.60;;;22.80;65.50;;;;;;221670;1257;22805;-53
2023/05/19 21:33:10;;;;;;;14.40;9.40;;;22.80;65.50;;;;;;221752;1249;24062;-53
2023/05/19 21:38:14;;;;;;;11.30;8.50;;;22.80;65.90;;;;;;221738;1261;22541;-53
2023/05/19 21:43:25;;;;;;;10.80;8.90;;;23.00;65.40;;;;;;221706;1249;22755;-52
2023/05/19 21:48:29;;;;;;;11.70;8.60;;;23.00;64.70;;;;;;221719;1256;25260;-56
2023/05/19 21:53:33;;;;;;;10.90;8.10;;;23.10;64.60;;;;;;221821;1259;22641;-52
2023/05/19 21:58:38;;;;;;;10.50;8.10;;;23.10;64.50;;;;;;221577;1256;22514;-52
2023/05/19 22:03:42;;;;;;;11.10;7.50;;;23.10;64.30;;;;;;221909;1263;22511;-50
2023/05/19 22:08:46;;;;;;;11.80;7.70;;;23.10;64.40;;;;;;221611;1262;22571;-53
2023/05/19 22:13:53;;;;;;;11.80;7.00;;;23.00;64.60;;;;;;221671;1256;25304;-52
2023/05/19 22:18:59;;;;;;;10.50;7.70;;;22.80;64.80;;;;;;221976;1257;23898;-54
2023/05/19 22:24:03;;;;;;;10.90;7.10;;;22.90;64.50;;;;;;221614;1262;23950;-50
2023/05/19 22:29:11;;;;;;;7.90;6.60;;;22.90;64.60;;;;;;221785;1256;22519;-55
2023/05/19 22:34:15;;;;;;;8.60;7.20;;;22.80;64.60;;;;;;221724;1249;24243;-54
2023/05/19 22:39:19;;;;;;;7.50;6.10;;;22.90;64.60;;;;;;221693;1259;23889;-54
2023/05/19 22:44:23;;;;;;;10.70;6.80;;;22.90;64.60;;;;;;221722;1266;24209;-51
2023/05/19 22:49:28;;;;;;;8.80;5.60;;;22.80;64.40;;;;;;221664;1256;22650;-52
2023/05/19 22:54:32;;;;;;;7.50;6.40;;;22.80;64.60;;;;;;221763;1264;22564;-52
2023/05/19 22:59:37;;;;;;;8.60;6.10;;;22.80;64.50;;;;;;221647;1266;22514;-52
2023/05/19 23:04:41;;;;;;;7.90;6.10;;;22.70;64.40;;;;;;221706;1261;22511;-51
2023/05/19 23:09:45;;;;;;;7.20;6.30;;;22.70;64.40;;;;;;221419;1266;25373;-51
2023/05/19 23:14:49;;;;;;;9.90;6.80;;;22.70;64.60;;;;;;221610;1259;22529;-52
2023/05/19 23:19:54;;;;;;;7.90;5.80;;;22.50;64.80;;;;;;221780;1259;24197;-50
2023/05/19 23:25:00;;;;;;;8.80;5.70;;;22.50;64.80;;;;;;221737;1249;22755;-54
2023/05/19 23:30:05;;;;;;;6.40;5.70;;;22.50;64.90;;;;;;221549;1262;23881;-54
2023/05/19 23:35:11;;;;;;;6.60;5.40;;;22.50;65.00;;;;;;221840;1266;25483;-50
2023/05/19 23:40:16;;;;;;;7.30;6.50;;;22.50;64.80;;;;;;221749;1256;25262;-53
2023/05/19 23:45:19;;;;;;;9.00;6.00;;;22.40;64.60;;;;;;221701;1260;24206;-53
2023/05/19 23:50:24;;;;;;;6.40;5.80;;;22.40;64.60;;;;;;221708;1256;22750;-53
2023/05/19 23:55:28;;;;;;;7.70;5.50;;;22.40;64.80;;;;;;221665;1264;22497;-54
